createdAt,value
2018-05-29T00:00:00.732Z,2.30
2018-05-29T00:02:28.364Z,1.90
2018-05-29T00:04:56.430Z,2.43
2018-05-29T00:07:24.883Z,1.83
2018-05-29T00:09:53.951Z,3.73
2018-05-29T00:12:22.022Z,2.27
2018-05-29T00:14:50.156Z,2.63
2018-05-29T00:17:18.560Z,1.83
2018-05-29T00:19:46.471Z,2.70
2018-05-29T00:22:14.079Z,1.90
2018-05-29T00:24:42.669Z,2.97
2018-05-29T00:27:10.741Z,2.30
2018-05-29T00:29:38.456Z,2.60
2018-05-29T00:32:06.047Z,1.90
2018-05-29T00:34:33.625Z,2.30
2018-05-29T00:37:01.967Z,2.47
2018-05-29T00:39:29.568Z,2.23
2018-05-29T00:41:57.145Z,2.33
2018-05-29T00:44:25.022Z,1.90
2018-05-29T00:46:52.744Z,2.70
2018-05-29T00:49:20.339Z,1.93
2018-05-29T00:51:48.411Z,3.10
2018-05-29T00:54:16.660Z,2.50
2018-05-29T00:56:44.896Z,1.93
2018-05-29T00:59:12.472Z,2.83
2018-05-29T01:01:40.031Z,1.90
2018-05-29T01:04:07.618Z,2.77
2018-05-29T01:06:35.611Z,2.50
2018-05-29T01:09:03.528Z,2.60
2018-05-29T01:11:31.735Z,2.00
2018-05-29T01:13:59.845Z,2.43
2018-05-29T01:16:28.139Z,2.07
2018-05-29T01:18:56.279Z,2.70
2018-05-29T01:21:24.090Z,2.40
2018-05-29T01:23:51.722Z,2.40
2018-05-29T01:26:20.237Z,2.40
2018-05-29T01:28:47.998Z,2.43
2018-05-29T01:31:16.660Z,2.83
2018-05-29T01:33:44.954Z,2.00
2018-05-29T01:36:12.514Z,3.07
2018-05-29T01:38:40.593Z,2.40
2018-05-29T01:41:08.135Z,2.80
2018-05-29T01:43:35.696Z,2.20
2018-05-29T01:46:03.323Z,2.80
2018-05-29T01:48:30.879Z,2.00
2018-05-29T01:51:00.308Z,3.57
2018-05-29T01:53:28.686Z,2.30
2018-05-29T01:55:56.227Z,2.47
2018-05-29T01:58:24.473Z,2.50
2018-05-29T02:00:52.158Z,2.20
2018-05-29T02:03:19.728Z,2.40
2018-05-29T02:05:48.517Z,2.13
2018-05-29T02:08:16.247Z,2.70
2018-05-29T02:10:44.310Z,2.30
2018-05-29T02:13:12.447Z,3.20
2018-05-29T02:15:40.840Z,2.37
2018-05-29T02:18:08.403Z,2.90
2018-05-29T02:25:04.010Z,2.70
2018-05-29T02:27:32.359Z,2.93
2018-05-29T02:29:59.925Z,2.07
2018-05-29T02:32:28.012Z,2.70
2018-05-29T02:34:55.564Z,2.80
2018-05-29T02:37:23.645Z,2.40
2018-05-29T02:39:51.183Z,2.07
2018-05-29T02:42:18.765Z,2.60
2018-05-29T02:44:46.856Z,2.33
2018-05-29T02:47:14.608Z,1.70
2018-05-29T02:49:42.156Z,2.30
2018-05-29T02:52:10.430Z,2.10
2018-05-29T02:54:37.987Z,2.50
2018-05-29T02:57:05.536Z,2.30
2018-05-29T02:59:33.607Z,2.80
2018-05-29T03:02:01.168Z,2.00
2018-05-29T03:04:28.755Z,3.03
2018-05-29T03:06:57.076Z,2.50
2018-05-29T03:09:25.506Z,2.50
2018-05-29T03:11:53.703Z,2.60
2018-05-29T03:14:21.312Z,2.37
2018-05-29T03:16:49.480Z,2.30
2018-05-29T03:19:17.632Z,2.10
2018-05-29T03:21:45.280Z,2.50
2018-05-29T03:24:13.930Z,2.63
2018-05-29T03:26:41.939Z,2.70
2018-05-29T03:29:09.524Z,2.50
2018-05-29T03:31:37.874Z,3.73
2018-05-29T03:34:06.120Z,3.10
2018-05-29T03:36:33.845Z,2.70
2018-05-29T03:39:02.233Z,2.33
2018-05-29T03:41:29.838Z,3.23
2018-05-29T03:43:57.422Z,2.60
2018-05-29T03:46:25.014Z,2.90
2018-05-29T03:48:54.433Z,2.70
2018-05-29T03:51:22.624Z,2.60
2018-05-29T03:53:50.901Z,3.07
2018-05-29T03:56:18.483Z,2.80
2018-05-29T03:58:46.825Z,2.60
2018-05-29T04:01:14.399Z,2.10
2018-05-29T04:03:42.221Z,2.50
2018-05-29T04:06:10.877Z,2.50
2018-05-29T04:08:39.217Z,2.77
2018-05-29T04:11:07.404Z,2.00
2018-05-29T04:13:35.196Z,2.90
2018-05-29T04:16:03.374Z,2.43
2018-05-29T04:18:31.607Z,3.20
2018-05-29T04:20:59.176Z,2.50
2018-05-29T04:23:26.793Z,2.60
2018-05-29T04:25:55.830Z,2.47
2018-05-29T04:28:23.748Z,2.60
2018-05-29T04:30:51.486Z,2.30
2018-05-29T04:33:19.743Z,2.50
2018-05-29T04:35:47.862Z,2.77
2018-05-29T04:38:18.507Z,2.60
2018-05-29T04:40:46.555Z,3.00
2018-05-29T04:43:14.241Z,2.70
2018-05-29T04:45:42.328Z,2.77
2018-05-29T04:48:10.567Z,2.43
2018-05-29T04:50:38.871Z,3.67
2018-05-29T04:53:07.036Z,3.00
2018-05-29T04:55:34.605Z,3.50
2018-05-29T04:58:02.187Z,2.50
2018-05-29T05:00:30.599Z,3.10
2018-05-29T05:02:58.224Z,2.77
2018-05-29T05:05:26.941Z,3.23
2018-05-29T05:07:54.814Z,2.40
2018-05-29T05:10:23.540Z,2.83
2018-05-29T05:12:51.775Z,3.00
2018-05-29T05:15:19.970Z,2.60
2018-05-29T05:17:48.523Z,2.60
2018-05-29T05:20:17.085Z,2.40
2018-05-29T05:22:46.652Z,3.40
2018-05-29T05:25:15.530Z,2.60
2018-05-29T05:27:43.174Z,2.70
2018-05-29T05:30:10.881Z,2.80
2018-05-29T05:32:40.385Z,3.10
2018-05-29T05:35:08.358Z,2.43
2018-05-29T05:37:36.666Z,3.03
2018-05-29T05:40:04.254Z,2.30
2018-05-29T05:42:32.298Z,2.97
2018-05-29T05:45:00.666Z,2.77
2018-05-29T05:47:28.432Z,2.73
2018-05-29T05:49:56.136Z,2.90
2018-05-29T05:52:24.950Z,2.40
2018-05-29T05:54:52.573Z,2.40
2018-05-29T05:57:20.152Z,2.23
2018-05-29T05:59:48.588Z,2.53
2018-05-29T06:02:16.408Z,2.60
2018-05-29T06:04:43.963Z,3.20
2018-05-29T06:07:12.525Z,2.37
2018-05-29T06:09:41.005Z,3.53
2018-05-29T06:12:09.132Z,2.50
2018-05-29T06:14:37.562Z,3.73
2018-05-29T06:17:05.136Z,2.73
2018-05-29T06:19:32.719Z,2.83
2018-05-29T06:22:00.343Z,2.70
2018-05-29T06:24:29.941Z,2.97
2018-05-29T06:26:58.240Z,2.50
2018-05-29T06:29:26.469Z,3.20
2018-05-29T06:31:54.160Z,2.70
2018-05-29T06:34:22.358Z,2.80
2018-05-29T06:36:50.595Z,2.60
2018-05-29T06:39:18.179Z,4.67
2018-05-29T06:41:46.701Z,2.77
2018-05-29T06:44:14.266Z,2.33
2018-05-29T06:46:41.830Z,2.10
2018-05-29T06:49:09.385Z,2.37
2018-05-29T06:51:37.416Z,2.70
2018-05-29T06:54:05.016Z,2.90
2018-05-29T06:56:32.580Z,2.47
2018-05-29T06:59:00.870Z,2.90
2018-05-29T07:01:28.442Z,2.50
2018-05-29T07:03:55.992Z,2.97
2018-05-29T07:06:25.174Z,2.33
2018-05-29T07:08:52.907Z,2.83
2018-05-29T07:11:20.850Z,2.40
2018-05-29T07:13:48.536Z,3.00
2018-05-29T07:16:16.960Z,2.07
2018-05-29T07:18:44.522Z,2.70
2018-05-29T07:21:12.058Z,2.60
2018-05-29T07:23:39.675Z,3.00
2018-05-29T07:26:08.065Z,2.60
2018-05-29T07:28:35.691Z,2.60
2018-05-29T07:31:03.269Z,2.67
2018-05-29T07:33:31.505Z,2.60
2018-05-29T07:35:59.079Z,2.93
2018-05-29T07:38:27.160Z,2.43
2018-05-29T07:40:55.375Z,3.00
2018-05-29T07:43:23.118Z,2.80
2018-05-29T07:45:50.660Z,2.53
2018-05-29T07:48:18.241Z,2.53
2018-05-29T07:50:47.364Z,3.10
2018-05-29T07:53:15.600Z,2.53
2018-05-29T07:55:43.279Z,2.30
2018-05-29T07:58:10.872Z,2.50
2018-05-29T08:00:39.321Z,2.73
2018-05-29T08:03:06.914Z,3.03
2018-05-29T08:05:35.425Z,2.80
2018-05-29T08:08:03.032Z,3.30
2018-05-29T08:10:31.385Z,2.80
2018-05-29T08:12:58.958Z,2.67
2018-05-29T08:15:27.066Z,2.73
2018-05-29T08:17:54.628Z,3.20
2018-05-29T08:20:22.372Z,2.70
2018-05-29T08:22:49.958Z,2.90
2018-05-29T08:25:18.820Z,2.77
2018-05-29T08:27:46.740Z,3.00
2018-05-29T08:30:14.299Z,2.77
2018-05-29T08:32:42.423Z,2.67
2018-05-29T08:35:09.983Z,3.10
2018-05-29T08:37:38.009Z,3.07
2018-05-29T08:40:05.574Z,3.00
2018-05-29T08:42:33.156Z,3.10
2018-05-29T08:45:00.717Z,3.23
2018-05-29T08:47:28.274Z,2.70
2018-05-29T08:49:55.827Z,3.50
2018-05-29T08:52:24.416Z,3.17
2018-05-29T08:54:51.952Z,3.27
2018-05-29T08:57:19.508Z,3.23
2018-05-29T08:59:47.981Z,3.60
2018-05-29T09:02:15.567Z,3.20
2018-05-29T09:04:43.149Z,2.97
2018-05-29T09:07:11.275Z,3.20
2018-05-29T09:09:39.395Z,3.30
2018-05-29T09:12:06.939Z,3.20
2018-05-29T09:14:35.272Z,3.13
2018-05-29T09:17:02.881Z,3.93
2018-05-29T09:19:30.561Z,3.00
2018-05-29T09:21:58.128Z,3.90
2018-05-29T09:24:26.286Z,2.80
2018-05-29T09:26:54.611Z,3.47
2018-05-29T09:29:22.329Z,3.10
2018-05-29T09:31:50.045Z,3.50
2018-05-29T09:34:18.126Z,2.90
2018-05-29T09:36:46.625Z,3.40
2018-05-29T09:39:14.178Z,2.80
2018-05-29T09:41:41.972Z,3.17
2018-05-29T09:44:09.610Z,3.00
2018-05-29T09:46:37.521Z,3.10
2018-05-29T09:49:05.164Z,3.60
2018-05-29T09:51:33.448Z,3.00
2018-05-29T09:54:00.997Z,4.00
2018-05-29T09:56:28.584Z,2.87
2018-05-29T09:58:56.860Z,3.20
2018-05-29T10:01:24.631Z,3.20
2018-05-29T10:03:52.342Z,3.40
2018-05-29T10:06:20.669Z,3.03
2018-05-29T10:08:48.325Z,3.17
2018-05-29T10:11:16.849Z,3.50
2018-05-29T10:13:44.420Z,3.00
2018-05-29T10:16:12.497Z,3.17
2018-05-29T10:18:40.050Z,3.20
2018-05-29T10:21:07.720Z,3.70
2018-05-29T10:23:35.308Z,3.27
2018-05-29T10:26:03.441Z,4.07
2018-05-29T10:28:37.054Z,3.20
2018-05-29T10:31:04.837Z,4.07
2018-05-29T10:33:32.974Z,3.03
2018-05-29T10:36:00.571Z,4.13
2018-05-29T10:38:28.999Z,3.73
2018-05-29T10:40:56.715Z,3.73
2018-05-29T10:43:24.333Z,3.47
2018-05-29T10:45:51.887Z,3.73
2018-05-29T10:48:19.547Z,3.50
2018-05-29T10:50:48.748Z,3.43
2018-05-29T10:53:17.525Z,3.37
2018-05-29T10:55:45.096Z,3.83
2018-05-29T10:58:12.648Z,3.90
2018-05-29T11:00:40.879Z,4.03
2018-05-29T11:03:08.417Z,3.57
2018-05-29T11:05:36.888Z,3.60
2018-05-29T11:08:04.483Z,3.70
2018-05-29T11:10:32.615Z,3.33
2018-05-29T11:13:00.164Z,4.53
2018-05-29T11:15:28.369Z,3.47
2018-05-29T11:17:55.932Z,3.63
2018-05-29T11:20:23.765Z,3.40
2018-05-29T11:22:51.447Z,3.90
2018-05-29T11:25:19.623Z,3.33
2018-05-29T11:27:47.923Z,3.80
2018-05-29T11:30:16.351Z,3.17
2018-05-29T11:32:44.777Z,3.43
2018-05-29T11:35:12.406Z,3.60
2018-05-29T11:37:40.497Z,3.10
2018-05-29T11:40:08.074Z,3.20
2018-05-29T11:42:36.455Z,3.17
2018-05-29T11:45:04.049Z,4.70
2018-05-29T11:47:31.619Z,3.50
2018-05-29T11:49:59.219Z,3.93
2018-05-29T11:52:27.655Z,3.57
2018-05-29T11:54:55.291Z,3.80
2018-05-29T11:57:23.104Z,3.90
2018-05-29T11:59:51.136Z,3.50
2018-05-29T12:02:18.711Z,3.73
2018-05-29T12:04:46.768Z,3.40
2018-05-29T12:07:14.979Z,3.67
2018-05-29T12:09:43.039Z,3.73
2018-05-29T12:12:22.528Z,3.93
2018-05-29T12:14:50.961Z,3.30
2018-05-29T12:17:18.529Z,3.30
2018-05-29T12:19:46.636Z,3.37
2018-05-29T12:22:14.262Z,3.80
2018-05-29T12:24:42.534Z,3.70
2018-05-29T12:27:10.766Z,3.70
2018-05-29T12:29:38.327Z,3.87
2018-05-29T12:32:06.477Z,4.17
2018-05-29T12:34:34.407Z,3.50
2018-05-29T12:37:02.736Z,3.30
2018-05-29T12:39:30.611Z,4.30
2018-05-29T12:41:58.176Z,3.33
2018-05-29T12:44:25.802Z,3.30
2018-05-29T12:46:53.589Z,3.83
2018-05-29T12:49:21.149Z,4.17
2018-05-29T12:51:49.344Z,3.70
2018-05-29T12:54:17.321Z,4.80
2018-05-29T12:56:44.879Z,3.53
2018-05-29T12:59:13.139Z,3.90
2018-05-29T13:01:40.723Z,3.20
2018-05-29T13:04:08.380Z,3.90
2018-05-29T13:06:36.240Z,3.43
2018-05-29T13:09:04.527Z,3.70
2018-05-29T13:11:32.645Z,3.27
2018-05-29T13:14:00.207Z,3.30
2018-05-29T13:16:28.321Z,3.90
2018-05-29T13:18:56.112Z,3.53
2018-05-29T13:21:23.844Z,3.73
2018-05-29T13:23:52.095Z,3.60
2018-05-29T13:26:20.359Z,4.00
2018-05-29T13:28:47.916Z,3.40
2018-05-29T13:31:15.671Z,3.77
2018-05-29T13:33:43.824Z,3.40
2018-05-29T13:36:11.555Z,4.33
2018-05-29T13:38:39.635Z,3.70
2018-05-29T13:41:07.359Z,4.40
2018-05-29T13:43:34.928Z,3.57
2018-05-29T13:46:02.712Z,3.73
2018-05-29T13:48:30.271Z,3.47
2018-05-29T13:50:58.655Z,3.60
2018-05-29T13:53:26.792Z,3.93
2018-05-29T13:55:54.838Z,3.57
2018-05-29T13:58:23.149Z,3.87
2018-05-29T14:00:51.144Z,3.50
2018-05-29T14:03:18.732Z,3.40
2018-05-29T14:05:46.987Z,3.53
2018-05-29T14:08:14.596Z,3.60
2018-05-29T14:10:42.641Z,3.23
2018-05-29T14:13:10.585Z,4.20
2018-05-29T14:15:38.985Z,3.10
2018-05-29T14:18:06.759Z,3.63
2018-05-29T14:20:34.305Z,2.97
2018-05-29T14:23:02.808Z,4.00
2018-05-29T14:25:31.347Z,2.97
2018-05-29T14:27:58.945Z,3.13
2018-05-29T14:30:26.532Z,2.90
2018-05-29T14:32:54.719Z,3.20
2018-05-29T14:35:22.404Z,3.67
2018-05-29T14:37:50.284Z,3.00
2018-05-29T14:40:19.030Z,3.27
2018-05-29T14:42:46.922Z,3.30
2018-05-29T14:45:14.579Z,3.53
2018-05-29T14:47:42.142Z,3.10
2018-05-29T14:50:09.748Z,3.40
2018-05-29T14:52:38.478Z,3.23
2018-05-29T14:55:06.025Z,3.37
2018-05-29T14:57:33.692Z,3.20
2018-05-29T15:00:02.116Z,3.60
2018-05-29T15:02:29.700Z,2.97
2018-05-29T15:04:57.978Z,3.20
2018-05-29T15:07:25.543Z,2.67
2018-05-29T15:09:53.700Z,3.20
2018-05-29T15:12:21.267Z,3.30
2018-05-29T15:14:49.262Z,3.20
2018-05-29T15:17:16.865Z,2.87
2018-05-29T15:19:45.170Z,3.10
2018-05-29T15:22:12.768Z,3.10
2018-05-29T15:24:40.829Z,3.00
2018-05-29T15:27:08.952Z,3.37
2018-05-29T15:29:36.843Z,3.20
2018-05-29T15:32:05.192Z,3.77
2018-05-29T15:34:32.751Z,3.30
2018-05-29T15:37:00.731Z,3.13
2018-05-29T15:39:28.268Z,3.17
2018-05-29T15:41:55.799Z,3.77
2018-05-29T15:44:23.662Z,3.07
2018-05-29T15:46:51.219Z,3.17
2018-05-29T15:49:18.756Z,3.30
2018-05-29T15:51:47.392Z,3.57
2018-05-29T15:54:14.931Z,2.90
2018-05-29T15:56:42.485Z,3.30
2018-05-29T15:59:10.786Z,3.80
2018-05-29T16:01:38.426Z,3.30
2018-05-29T16:04:05.972Z,3.53
2018-05-29T16:06:34.030Z,3.20
2018-05-29T16:09:01.578Z,3.63
2018-05-29T16:11:29.756Z,3.60
2018-05-29T16:13:57.325Z,3.77
2018-05-29T16:16:25.286Z,3.47
2018-05-29T16:18:53.665Z,4.13
2018-05-29T16:21:21.199Z,3.20
2018-05-29T16:23:49.347Z,3.43
2018-05-29T16:26:17.976Z,2.97
2018-05-29T16:28:45.624Z,3.53
2018-05-29T16:31:13.206Z,3.50
2018-05-29T16:33:42.560Z,3.93
2018-05-29T16:36:10.136Z,3.60
2018-05-29T16:38:38.185Z,3.77
2018-05-29T16:41:05.799Z,4.40
2018-05-29T16:43:33.363Z,4.20
2018-05-29T16:46:01.010Z,4.13
2018-05-29T16:48:28.570Z,3.80
2018-05-29T16:50:56.871Z,4.20
2018-05-29T16:53:25.081Z,3.70
2018-05-29T16:55:52.899Z,3.70
2018-05-29T16:58:20.446Z,3.93
2018-05-29T17:00:48.494Z,4.00
2018-05-29T17:03:16.491Z,3.70
2018-05-29T17:05:44.791Z,3.97
2018-05-29T17:08:12.327Z,3.43
2018-05-29T17:10:40.578Z,4.10
2018-05-29T17:13:08.135Z,4.10
2018-05-29T17:15:36.211Z,4.20
2018-05-29T17:18:03.799Z,3.57
2018-05-29T17:20:31.361Z,3.63
2018-05-29T17:22:58.930Z,4.00
2018-05-29T17:25:27.294Z,3.33
2018-05-29T17:27:54.827Z,4.17
2018-05-29T17:30:22.499Z,4.17
2018-05-29T17:32:50.720Z,3.73
2018-05-29T17:35:18.266Z,3.90
2018-05-29T17:37:46.859Z,3.90
2018-05-29T17:40:14.415Z,3.80
2018-05-29T17:42:41.992Z,3.67
2018-05-29T17:45:09.571Z,3.50
2018-05-29T17:47:37.125Z,3.73
2018-05-29T17:50:04.713Z,4.00
2018-05-29T17:52:33.161Z,3.70
2018-05-29T17:55:00.707Z,3.63
2018-05-29T17:57:28.282Z,4.07
2018-05-29T17:59:56.708Z,5.17
2018-05-29T18:02:24.424Z,3.67
2018-05-29T18:04:51.979Z,4.40
2018-05-29T18:07:20.371Z,3.53
2018-05-29T18:09:48.798Z,4.03
2018-05-29T18:12:16.707Z,3.70
2018-05-29T18:14:44.731Z,3.97
2018-05-29T18:17:12.933Z,3.83
2018-05-29T18:19:40.471Z,3.60
2018-05-29T18:22:08.700Z,3.90
2018-05-29T18:24:37.003Z,4.20
2018-05-29T18:27:05.162Z,4.70
2018-05-29T18:29:32.702Z,3.80
2018-05-29T18:32:01.131Z,4.87
2018-05-29T18:34:28.988Z,4.27
2018-05-29T18:36:57.170Z,4.33
2018-05-29T18:39:24.729Z,4.23
2018-05-29T18:41:52.628Z,4.40
2018-05-29T18:44:20.217Z,4.03
2018-05-29T18:46:47.922Z,4.40
2018-05-29T18:49:15.664Z,3.80
2018-05-29T18:51:43.911Z,3.80
2018-05-29T18:54:11.468Z,4.07
2018-05-29T18:56:39.018Z,3.90
2018-05-29T18:59:07.187Z,4.33
2018-05-29T19:01:34.762Z,4.50
2018-05-29T19:04:02.378Z,5.20
2018-05-29T19:06:30.510Z,4.30
2018-05-29T19:08:58.055Z,4.90
2018-05-29T19:11:26.177Z,4.27
2018-05-29T19:13:53.987Z,3.77
2018-05-29T19:16:22.505Z,6.57
2018-05-29T19:18:51.056Z,4.60
2018-05-29T19:21:18.611Z,5.10
2018-05-29T19:23:47.200Z,4.50
2018-05-29T19:26:16.068Z,5.10
2018-05-29T19:28:43.662Z,4.30
2018-05-29T19:31:11.205Z,4.93
2018-05-29T19:33:39.456Z,3.73
2018-05-29T19:36:07.101Z,4.67
2018-05-29T19:38:35.199Z,4.43
2018-05-29T19:41:03.191Z,5.30
2018-05-29T19:43:30.794Z,4.43
2018-05-29T19:45:58.429Z,5.00
2018-05-29T19:48:26.008Z,4.63
2018-05-29T19:50:54.672Z,4.27
2018-05-29T19:53:23.029Z,4.53
2018-05-29T19:55:50.607Z,4.47
2018-05-29T19:58:18.172Z,5.27
2018-05-29T20:00:46.843Z,4.00
2018-05-29T20:03:14.457Z,5.93
2018-05-29T20:05:42.663Z,4.60
2018-05-29T20:08:10.849Z,5.00
2018-05-29T20:10:39.090Z,4.57
2018-05-29T20:13:06.652Z,5.40
2018-05-29T20:15:34.683Z,4.70
2018-05-29T20:18:02.497Z,5.40
2018-05-29T20:20:30.048Z,4.90
2018-05-29T20:22:58.458Z,4.73
2018-05-29T20:25:26.443Z,5.00
2018-05-29T20:27:54.224Z,4.60
2018-05-29T20:30:21.748Z,4.93
2018-05-29T20:32:50.037Z,4.77
2018-05-29T20:35:18.573Z,4.37
2018-05-29T20:37:47.175Z,4.90
2018-05-29T20:40:14.752Z,5.13
2018-05-29T20:42:42.344Z,5.60
2018-05-29T20:45:09.910Z,5.30
2018-05-29T20:47:37.455Z,5.80
2018-05-29T20:50:05.074Z,5.30
2018-05-29T20:52:33.341Z,6.07
2018-05-29T20:55:00.891Z,5.67
2018-05-29T20:57:28.447Z,4.93
2018-05-29T20:59:56.612Z,5.33
2018-05-29T21:02:24.364Z,6.00
2018-05-29T21:04:51.943Z,5.20
2018-05-29T21:07:20.090Z,4.77
2018-05-29T21:09:49.583Z,5.37
2018-05-29T21:12:17.804Z,5.37
2018-05-29T21:14:46.542Z,5.00
2018-05-29T21:17:14.080Z,5.60
2018-05-29T21:19:42.285Z,5.13
2018-05-29T21:22:09.882Z,5.43
2018-05-29T21:24:37.694Z,5.90
2018-05-29T21:27:05.656Z,5.93
2018-05-29T21:29:33.252Z,5.20
2018-05-29T21:32:00.788Z,6.17
2018-05-29T21:34:28.915Z,5.73
2018-05-29T21:36:57.017Z,6.07
2018-05-29T21:39:24.676Z,5.07
2018-05-29T21:41:52.470Z,5.30
2018-05-29T21:44:20.080Z,5.97
2018-05-29T21:46:48.087Z,5.67
2018-05-29T21:49:16.325Z,6.23
2018-05-29T21:51:44.360Z,5.57
2018-05-29T21:54:11.971Z,6.17
2018-05-29T21:56:39.608Z,5.00
2018-05-29T21:59:08.266Z,5.77
2018-05-29T22:01:35.819Z,5.40
2018-05-29T22:04:04.117Z,6.13
2018-05-29T22:06:32.910Z,5.40
2018-05-29T22:09:00.529Z,6.00
2018-05-29T22:11:28.578Z,5.60
2018-05-29T22:13:56.188Z,6.27
2018-05-29T22:16:24.799Z,5.63
2018-05-29T22:18:52.491Z,5.57
2018-05-29T22:21:20.099Z,5.97
2018-05-29T22:23:48.451Z,5.80
2018-05-29T22:26:17.122Z,5.87
2018-05-29T22:28:44.714Z,5.60
2018-05-29T22:31:12.309Z,6.73
2018-05-29T22:33:40.575Z,5.97
2018-05-29T22:36:08.288Z,6.20
2018-05-29T22:38:36.381Z,5.77
2018-05-29T22:41:03.983Z,6.60
2018-05-29T22:43:31.548Z,6.23
2018-05-29T22:46:00.339Z,7.53
2018-05-29T22:48:27.999Z,7.00
2018-05-29T22:50:56.473Z,6.30
2018-05-29T22:53:24.886Z,5.87
2018-05-29T22:55:52.544Z,6.70
2018-05-29T22:58:20.245Z,6.37
2018-05-29T23:00:48.673Z,6.00
2018-05-29T23:03:16.588Z,6.13
2018-05-29T23:05:44.744Z,5.90
2018-05-29T23:08:13.221Z,7.30
2018-05-29T23:10:41.398Z,6.00
2018-05-29T23:13:08.958Z,6.70
2018-05-29T23:15:37.135Z,5.80
2018-05-29T23:18:04.744Z,7.37
2018-05-29T23:20:32.529Z,6.50
2018-05-29T23:23:00.173Z,7.40
2018-05-29T23:25:28.745Z,6.53
2018-05-29T23:27:56.433Z,7.23
2018-05-29T23:30:24.200Z,6.67
2018-05-29T23:32:52.474Z,7.17
2018-05-29T23:35:20.050Z,6.77
2018-05-29T23:37:49.001Z,6.30
2018-05-29T23:40:17.154Z,7.03
2018-05-29T23:42:44.736Z,6.90
2018-05-29T23:45:13.013Z,6.93
2018-05-29T23:47:40.585Z,6.70
2018-05-29T23:50:08.121Z,8.57
2018-05-29T23:52:36.365Z,6.70
2018-05-29T23:55:04.337Z,6.20
2018-05-29T23:57:32.316Z,7.07
